Time;durP1;ratioP1;P1;durP2;ratioP2;P2;SDS_P1;SDS_P2;PMS_P1;PMS_P2;Temp;Humidity;BMP_temperature;BMP_pressure;BME280_temperature;BME280_humidity;BME280_pressure;Samples;Min_cycle;Max_cycle;Signal;HPM_P1;HPM_P2
2022/08/15 00:01:23;;;;;;;11.75;9.52;;;24.10;99.90;;;;;;5038411;28;20470;-59
2022/08/15 00:03:52;;;;;;;10.90;9.77;;;24.00;99.90;;;;;;5032366;28;20042;-59
2022/08/15 00:06:31;;;;;;;12.35;10.30;;;24.00;99.90;;;;;;5046196;28;20055;-59
2022/08/15 00:09:03;;;;;;;9.57;8.52;;;24.00;99.90;;;;;;5053230;28;20411;-58
2022/08/15 00:11:40;;;;;;;10.05;9.05;;;23.90;99.90;;;;;;5038969;28;20053;-58
2022/08/15 00:14:14;;;;;;;10.32;9.32;;;23.90;99.90;;;;;;5044234;28;20370;-59
2022/08/15 00:16:41;;;;;;;10.05;9.05;;;23.80;99.90;;;;;;5046305;28;20060;-58
2022/08/15 00:19:11;;;;;;;10.52;9.38;;;23.80;99.90;;;;;;5033326;28;20042;-58
2022/08/15 00:21:44;;;;;;;9.80;8.77;;;23.80;99.90;;;;;;5046893;28;20397;-58
2022/08/15 00:24:16;;;;;;;11.90;9.07;;;23.80;99.90;;;;;;5045286;28;20103;-59
2022/08/15 00:26:43;;;;;;;9.98;8.45;;;23.80;99.90;;;;;;5042631;28;20524;-59
2022/08/15 00:29:09;;;;;;;10.02;8.63;;;23.80;99.90;;;;;;5032393;28;20454;-58
2022/08/15 00:31:35;;;;;;;10.13;9.00;;;23.70;99.90;;;;;;5032619;28;20037;-58
2022/08/15 00:34:03;;;;;;;9.73;8.38;;;23.80;99.90;;;;;;5032004;28;20232;-59
2022/08/15 00:36:30;;;;;;;9.15;8.25;;;23.70;99.90;;;;;;5024651;28;20191;-59
2022/08/15 00:38:56;;;;;;;9.63;8.63;;;23.80;99.90;;;;;;5040353;28;20116;-58
2022/08/15 00:41:41;;;;;;;10.77;8.40;;;23.80;99.90;;;;;;5028681;28;20037;-59
2022/08/15 00:44:20;;;;;;;9.60;8.65;;;23.80;99.90;;;;;;5038431;28;20045;-59
2022/08/15 00:46:54;;;;;;;10.05;9.05;;;23.70;99.90;;;;;;5018589;28;20049;-59
2022/08/15 00:49:21;;;;;;;10.77;8.30;;;23.80;99.90;;;;;;5032398;28;20043;-58
2022/08/15 00:51:57;;;;;;;11.65;9.55;;;23.80;99.90;;;;;;5018344;28;20038;-59
2022/08/15 00:54:39;;;;;;;9.90;8.65;;;23.80;99.90;;;;;;5031348;28;20124;-58
2022/08/15 00:57:18;;;;;;;10.65;8.52;;;23.70;99.90;;;;;;5019976;28;20059;-58
2022/08/15 00:59:54;;;;;;;10.13;9.05;;;23.70;99.90;;;;;;5031848;28;20116;-59
2022/08/15 01:02:24;;;;;;;10.25;9.23;;;23.70;99.90;;;;;;5023691;28;20057;-59
2022/08/15 01:04:50;;;;;;;10.55;9.45;;;23.70;99.90;;;;;;5038870;28;20191;-58
2022/08/15 01:07:16;;;;;;;11.88;9.63;;;23.70;99.90;;;;;;5031861;28;20041;-59
2022/08/15 01:09:42;;;;;;;9.75;8.75;;;23.80;99.90;;;;;;5032149;28;20351;-58
2022/08/15 01:12:17;;;;;;;12.30;8.50;;;23.80;99.90;;;;;;5037575;28;20481;-58
2022/08/15 01:14:47;;;;;;;9.90;8.90;;;23.90;99.90;;;;;;5037789;28;20037;-58
2022/08/15 01:17:14;;;;;;;9.50;8.07;;;23.90;99.90;;;;;;5031443;28;20064;-60
2022/08/15 01:19:59;;;;;;;9.93;8.43;;;24.00;99.90;;;;;;5043307;28;20120;-59
2022/08/15 01:22:36;;;;;;;10.57;8.90;;;24.10;99.90;;;;;;5045308;28;20518;-59
2022/08/15 01:25:19;;;;;;;9.38;8.38;;;24.10;99.90;;;;;;5040282;28;20045;-59
2022/08/15 01:28:00;;;;;;;10.35;9.35;;;24.10;99.90;;;;;;5047398;28;20060;-60
2022/08/15 01:30:30;;;;;;;10.68;9.57;;;24.10;99.90;;;;;;5014184;28;20198;-58
2022/08/15 01:32:56;;;;;;;10.38;9.35;;;24.10;99.90;;;;;;5036259;28;20041;-58
2022/08/15 01:35:22;;;;;;;11.48;10.38;;;24.00;99.90;;;;;;5045029;28;20068;-59
2022/08/15 01:37:50;;;;;;;11.32;9.57;;;23.90;99.90;;;;;;5036855;28;20099;-58
2022/08/15 01:40:45;;;;;;;11.65;10.45;;;23.90;99.90;;;;;;5042377;28;20152;-58
2022/08/15 01:43:12;;;;;;;12.63;9.20;;;23.90;99.90;;;;;;5036621;28;20114;-58
2022/08/15 01:45:41;;;;;;;10.80;9.68;;;23.80;99.90;;;;;;5043437;28;20037;-58
2022/08/15 01:48:20;;;;;;;11.45;9.38;;;23.80;99.90;;;;;;5037038;28;20041;-58
2022/08/15 01:50:58;;;;;;;11.82;9.80;;;23.80;99.90;;;;;;5022415;28;20041;-58
2022/08/15 01:53:43;;;;;;;11.25;9.52;;;23.80;99.90;;;;;;5031199;28;20117;-59
2022/08/15 01:56:18;;;;;;;11.13;9.93;;;23.80;99.90;;;;;;5007437;28;20120;-58
2022/08/15 01:58:45;;;;;;;10.57;9.48;;;23.80;99.90;;;;;;5031135;28;20037;-60
2022/08/15 02:01:15;;;;;;;10.20;9.10;;;23.70;99.90;;;;;;5031352;28;20038;-59
2022/08/15 02:03:42;;;;;;;12.57;10.45;;;23.70;99.90;;;;;;5030375;28;20112;-58
2022/08/15 02:06:24;;;;;;;12.40;10.15;;;23.70;99.90;;;;;;5031013;28;20041;-59
2022/08/15 02:08:52;;;;;;;10.13;9.02;;;23.70;99.90;;;;;;5017419;28;20053;-59
2022/08/15 02:11:21;;;;;;;11.68;9.85;;;23.70;99.90;;;;;;5045003;28;20338;-59
2022/08/15 02:13:48;;;;;;;10.82;9.73;;;23.70;99.90;;;;;;5037899;28;20040;-58
2022/08/15 02:16:16;;;;;;;11.00;9.80;;;23.80;99.90;;;;;;5046070;28;20045;-60
2022/08/15 02:18:42;;;;;;;11.40;10.00;;;23.70;99.90;;;;;;5041098;28;20047;-58
2022/08/15 02:21:09;;;;;;;11.45;10.25;;;23.70;99.90;;;;;;5045797;28;20045;-59
2022/08/15 02:23:35;;;;;;;12.75;10.32;;;23.70;99.90;;;;;;5034357;28;20120;-59
2022/08/15 02:26:02;;;;;;;10.60;9.50;;;23.70;99.90;;;;;;5048623;28;20168;-59
2022/08/15 02:28:28;;;;;;;12.55;9.73;;;23.70;99.90;;;;;;5034760;28;20589;-58
2022/08/15 02:30:54;;;;;;;11.20;9.50;;;23.60;99.90;;;;;;5034673;28;20153;-59
2022/08/15 02:33:21;;;;;;;10.98;9.88;;;23.60;99.90;;;;;;5017253;28;20045;-59
2022/08/15 02:35:47;;;;;;;11.27;10.02;;;23.60;99.90;;;;;;5047178;28;20041;-58
2022/08/15 02:38:13;;;;;;;12.40;9.93;;;23.50;99.90;;;;;;5034676;28;20044;-58
2022/08/15 02:40:39;;;;;;;10.88;9.80;;;23.50;99.90;;;;;;5034890;28;20041;-62
2022/08/15 02:43:09;;;;;;;9.90;8.90;;;23.50;99.90;;;;;;5034673;28;20095;-59
2022/08/15 02:45:39;;;;;;;10.73;9.30;;;23.40;99.90;;;;;;5044322;28;20359;-59
2022/08/15 02:48:06;;;;;;;9.48;8.43;;;23.50;99.90;;;;;;5050829;28;20453;-59
2022/08/15 02:50:35;;;;;;;10.00;8.32;;;23.50;99.90;;;;;;5035207;28;20112;-59
2022/08/15 02:53:16;;;;;;;10.27;8.45;;;23.50;99.90;;;;;;5033483;28;20076;-59
2022/08/15 02:55:44;;;;;;;10.50;8.30;;;23.50;99.90;;;;;;5035234;28;20246;-58
2022/08/15 02:58:11;;;;;;;9.77;8.75;;;23.40;99.90;;;;;;5036818;28;20052;-58
2022/08/15 03:00:38;;;;;;;10.38;9.38;;;23.50;99.90;;;;;;5045665;28;20041;-60
2022/08/15 03:03:08;;;;;;;10.55;9.45;;;23.40;99.90;;;;;;5034432;28;20059;-59
2022/08/15 03:05:36;;;;;;;11.27;9.82;;;23.40;99.90;;;;;;5031453;28;20106;-59
2022/08/15 03:08:03;;;;;;;11.23;9.60;;;23.40;99.90;;;;;;5054103;28;20417;-59
2022/08/15 03:10:28;;;;;;;10.52;8.88;;;23.40;99.90;;;;;;5034325;28;20040;-59
2022/08/15 03:13:01;;;;;;;10.43;9.43;;;23.40;99.90;;;;;;5034303;28;20033;-58
2022/08/15 03:15:39;;;;;;;11.30;10.07;;;23.30;99.90;;;;;;5032711;28;20456;-59
2022/08/15 03:18:05;;;;;;;10.48;9.43;;;23.30;99.90;;;;;;5033659;28;20089;-59
2022/08/15 03:20:32;;;;;;;12.15;10.73;;;23.20;99.90;;;;;;5033840;28;20542;-58
2022/08/15 03:22:59;;;;;;;12.82;10.10;;;23.20;99.90;;;;;;5023102;28;20045;-59
2022/08/15 03:25:25;;;;;;;13.05;10.57;;;23.10;99.90;;;;;;5026186;28;20091;-59
2022/08/15 03:27:52;;;;;;;12.65;11.27;;;23.10;99.90;;;;;;5049063;28;20037;-59
2022/08/15 03:30:18;;;;;;;11.15;10.00;;;23.10;99.90;;;;;;5044743;28;20496;-58
2022/08/15 03:32:50;;;;;;;10.65;9.55;;;23.00;99.90;;;;;;5036623;28;20041;-58
2022/08/15 03:35:18;;;;;;;12.60;9.80;;;22.90;99.90;;;;;;5042423;28;20110;-59
2022/08/15 03:37:44;;;;;;;10.82;9.82;;;22.80;99.90;;;;;;5037145;28;20056;-59
2022/08/15 03:40:10;;;;;;;12.65;10.48;;;22.80;99.90;;;;;;5033473;28;20370;-58
2022/08/15 03:42:36;;;;;;;11.30;10.20;;;22.80;99.90;;;;;;5033593;28;20052;-58
2022/08/15 03:45:10;;;;;;;12.30;11.05;;;22.90;99.90;;;;;;5032491;28;20049;-59
2022/08/15 03:47:36;;;;;;;12.40;11.20;;;22.80;99.90;;;;;;5033570;28;20068;-59
2022/08/15 03:50:05;;;;;;;13.40;11.25;;;22.80;99.90;;;;;;5021346;28;20066;-58
2022/08/15 03:52:30;;;;;;;12.35;11.15;;;22.70;99.90;;;;;;5053693;28;20099;-58
2022/08/15 03:55:04;;;;;;;11.93;10.73;;;22.70;99.90;;;;;;5034148;28;20037;-59
2022/08/15 03:57:29;;;;;;;12.55;11.35;;;22.60;99.90;;;;;;5015823;28;20049;-58
2022/08/15 03:59:55;;;;;;;13.95;10.85;;;22.60;99.90;;;;;;5033144;28;20033;-58
2022/08/15 04:02:24;;;;;;;13.60;11.48;;;22.60;99.90;;;;;;5033467;28;20107;-58
2022/08/15 04:04:51;;;;;;;14.15;11.50;;;22.50;99.90;;;;;;5015521;28;20052;-58
2022/08/15 04:07:16;;;;;;;12.77;11.38;;;22.50;99.90;;;;;;5045204;28;20056;-58
2022/08/15 04:09:43;;;;;;;11.23;10.07;;;22.50;99.90;;;;;;5033213;28;20037;-59
2022/08/15 04:12:09;;;;;;;13.35;10.95;;;22.40;99.90;;;;;;5038645;28;20048;-58
2022/08/15 04:14:35;;;;;;;12.07;10.55;;;22.50;99.90;;;;;;5040112;28;20033;-58
2022/08/15 04:17:01;;;;;;;12.65;11.38;;;22.50;99.90;;;;;;5036366;28;20071;-58
2022/08/15 04:19:27;;;;;;;12.82;11.52;;;22.50;99.90;;;;;;5053037;28;20048;-59
2022/08/15 04:21:53;;;;;;;13.13;11.73;;;22.40;99.90;;;;;;5019100;28;20061;-59
2022/08/15 04:24:19;;;;;;;11.65;10.00;;;22.40;99.90;;;;;;5035055;28;20033;-59
2022/08/15 04:26:44;;;;;;;13.07;11.55;;;22.40;99.90;;;;;;5043037;28;20053;-58
2022/08/15 04:29:10;;;;;;;14.18;11.32;;;22.40;99.90;;;;;;5046824;28;20098;-58
2022/08/15 04:31:37;;;;;;;13.55;11.30;;;22.40;99.90;;;;;;5032810;28;20099;-59
2022/08/15 04:34:03;;;;;;;15.38;12.73;;;22.40;99.90;;;;;;5031251;28;20046;-58
2022/08/15 04:36:30;;;;;;;13.48;12.18;;;22.40;99.90;;;;;;5024417;28;20044;-58
2022/08/15 04:38:56;;;;;;;14.57;11.88;;;22.40;99.90;;;;;;5039985;28;20455;-59
2022/08/15 04:41:21;;;;;;;14.20;12.75;;;22.40;99.90;;;;;;5036186;28;20025;-58
2022/08/15 04:43:47;;;;;;;15.68;12.57;;;22.40;99.90;;;;;;5050240;28;20420;-58
2022/08/15 04:46:13;;;;;;;16.00;12.88;;;22.30;99.90;;;;;;5032011;28;20091;-58
2022/08/15 04:48:39;;;;;;;15.73;12.63;;;22.30;99.90;;;;;;5040506;28;20131;-58
2022/08/15 04:51:05;;;;;;;15.23;12.90;;;22.20;99.90;;;;;;5038011;28;20417;-58
2022/08/15 04:53:35;;;;;;;14.10;12.00;;;22.10;99.90;;;;;;5046236;28;20427;-58
2022/08/15 04:56:04;;;;;;;15.32;12.75;;;22.20;99.90;;;;;;5031192;28;20033;-59
2022/08/15 04:58:31;;;;;;;13.80;11.88;;;22.20;99.90;;;;;;5031939;28;20514;-59
2022/08/15 05:01:09;;;;;;;13.20;11.93;;;22.20;99.90;;;;;;5032053;28;20042;-58
2022/08/15 05:03:37;;;;;;;17.13;13.15;;;22.20;99.90;;;;;;5014442;28;20380;-58
2022/08/15 05:06:06;;;;;;;13.63;12.15;;;22.30;99.90;;;;;;5042391;28;20080;-60
2022/08/15 05:08:34;;;;;;;14.20;11.80;;;22.30;99.90;;;;;;5002573;28;20403;-59
2022/08/15 05:11:09;;;;;;;13.15;11.85;;;22.30;99.90;;;;;;5024526;28;20044;-59
2022/08/15 05:13:38;;;;;;;14.32;11.18;;;22.40;99.90;;;;;;5048508;28;20035;-59
2022/08/15 05:16:07;;;;;;;13.57;11.60;;;22.40;99.90;;;;;;5030926;28;20037;-58
2022/08/15 05:18:38;;;;;;;14.65;11.35;;;22.40;99.90;;;;;;5031366;28;20434;-60
2022/08/15 05:21:05;;;;;;;13.20;10.93;;;22.40;99.90;;;;;;5031787;28;20559;-58
2022/08/15 05:23:31;;;;;;;13.10;11.70;;;22.40;99.90;;;;;;5014080;28;20205;-58
2022/08/15 05:25:59;;;;;;;12.50;10.55;;;22.40;99.90;;;;;;5044557;28;20042;-58
2022/08/15 05:28:26;;;;;;;12.52;11.23;;;22.50;99.90;;;;;;5014045;28;20045;-59
2022/08/15 05:30:53;;;;;;;11.63;10.52;;;22.50;99.90;;;;;;5031363;28;20534;-59
2022/08/15 05:33:28;;;;;;;12.10;10.75;;;22.50;99.90;;;;;;5039622;28;20129;-59
2022/08/15 05:35:56;;;;;;;13.15;11.73;;;22.60;99.90;;;;;;5031970;28;20299;-59
2022/08/15 05:38:35;;;;;;;11.90;10.70;;;22.60;99.90;;;;;;5031512;28;20397;-59
2022/08/15 05:41:32;;;;;;;13.05;11.23;;;22.60;99.90;;;;;;5031455;28;20076;-59
2022/08/15 05:44:14;;;;;;;12.45;11.07;;;22.60;99.90;;;;;;5030395;28;20117;-57
2022/08/15 05:46:48;;;;;;;13.75;11.23;;;22.60;99.90;;;;;;5030295;28;20237;-58
2022/08/15 05:49:21;;;;;;;12.13;10.73;;;22.60;99.90;;;;;;5031386;28;20414;-58
2022/08/15 05:52:27;;;;;;;15.00;11.10;;;22.70;99.90;;;;;;5031255;28;20052;-58
2022/08/15 05:55:02;;;;;;;11.88;10.57;;;23.00;99.90;;;;;;5002817;28;20042;-58
2022/08/15 05:57:49;;;;;;;12.98;11.57;;;23.60;99.90;;;;;;5031547;28;20042;-58
2022/08/15 06:00:16;;;;;;;12.25;10.82;;;24.30;99.90;;;;;;5037076;28;20055;-59
2022/08/15 06:02:54;;;;;;;13.50;11.05;;;25.00;99.90;;;;;;5039542;28;20045;-59
2022/08/15 06:05:26;;;;;;;13.32;10.85;;;25.50;99.90;;;;;;5036092;28;20045;-59
2022/08/15 06:07:52;;;;;;;12.00;10.70;;;25.80;99.90;;;;;;5031223;28;20098;-59
2022/08/15 06:10:33;;;;;;;12.10;10.82;;;26.10;99.90;;;;;;5031099;28;20108;-59
2022/08/15 06:13:23;;;;;;;12.75;10.70;;;26.40;99.80;;;;;;5031398;28;20053;-58
2022/08/15 06:16:17;;;;;;;11.55;10.13;;;26.70;99.40;;;;;;5029990;28;20072;-59
2022/08/15 06:18:45;;;;;;;13.75;11.52;;;27.50;98.80;;;;;;5031159;28;20049;-59
2022/08/15 06:21:31;;;;;;;11.73;10.18;;;27.70;98.20;;;;;;5023526;28;20041;-60
2022/08/15 06:24:15;;;;;;;11.13;9.98;;;27.60;98.20;;;;;;5000590;28;20459;-59
2022/08/15 06:26:43;;;;;;;12.70;10.98;;;28.00;98.00;;;;;;5051048;28;20064;-59
2022/08/15 06:29:35;;;;;;;10.93;9.82;;;28.50;97.60;;;;;;5035363;28;20346;-60
2022/08/15 06:32:26;;;;;;;10.45;9.23;;;28.90;96.50;;;;;;5031237;28;20171;-60
2022/08/15 06:34:59;;;;;;;13.63;9.60;;;29.00;96.40;;;;;;5015509;28;20037;-61
2022/08/15 06:37:44;;;;;;;10.57;9.55;;;28.40;95.90;;;;;;5044465;28;20101;-59
2022/08/15 06:40:28;;;;;;;12.15;9.45;;;27.90;96.40;;;;;;5041759;28;20060;-61
2022/08/15 06:42:57;;;;;;;11.40;10.10;;;27.90;96.80;;;;;;5030947;28;20037;-60
2022/08/15 06:45:34;;;;;;;11.65;9.77;;;27.90;96.60;;;;;;5029621;28;20366;-60
2022/08/15 06:48:09;;;;;;;12.13;10.90;;;27.80;96.50;;;;;;5045101;28;20045;-59
2022/08/15 06:50:41;;;;;;;16.67;12.13;;;27.30;97.20;;;;;;5040800;28;20103;-59
2022/08/15 06:53:20;;;;;;;13.73;11.43;;;26.70;98.00;;;;;;5047742;28;20348;-59
2022/08/15 06:55:53;;;;;;;12.77;11.48;;;26.40;98.70;;;;;;5040181;28;20376;-59
2022/08/15 06:58:45;;;;;;;;;;;26.20;99.30;;;;;;5039481;28;20061;-59
2022/08/15 07:01:21;;;;;;;12.35;11.05;;;26.00;99.40;;;;;;5023497;28;20008;-59
2022/08/15 07:04:20;;;;;;;11.98;10.77;;;26.00;99.80;;;;;;5027807;28;20116;-59
2022/08/15 07:07:10;;;;;;;12.70;11.40;;;25.80;99.60;;;;;;4950116;28;20151;-60
2022/08/15 07:10:17;;;;;;;15.20;12.32;;;25.70;99.70;;;;;;5054339;28;20037;-59
2022/08/15 07:12:52;;;;;;;13.57;12.23;;;25.80;99.90;;;;;;4973549;28;20474;-58
2022/08/15 07:15:46;;;;;;;14.43;13.02;;;25.80;99.90;;;;;;4974978;28;20034;-59
2022/08/15 07:18:25;;;;;;;14.43;12.80;;;26.00;99.80;;;;;;5023219;28;20351;-58
2022/08/15 07:21:05;;;;;;;15.05;12.95;;;26.50;99.00;;;;;;5034187;28;20034;-59
2022/08/15 07:23:32;;;;;;;15.77;14.15;;;26.80;98.80;;;;;;5047975;28;20117;-59
2022/08/15 07:26:05;;;;;;;15.60;14.07;;;27.00;98.30;;;;;;5033252;28;20037;-60
2022/08/15 07:28:33;;;;;;;15.20;13.68;;;27.10;97.90;;;;;;5034120;28;20045;-59
2022/08/15 07:31:11;;;;;;;15.82;14.15;;;27.30;97.70;;;;;;5048296;28;20068;-59
2022/08/15 07:33:46;;;;;;;16.63;14.98;;;27.60;97.50;;;;;;5033647;28;20428;-59
2022/08/15 07:36:23;;;;;;;17.33;14.80;;;27.60;97.40;;;;;;5014108;28;20034;-59
2022/08/15 07:38:53;;;;;;;15.73;14.13;;;27.70;97.50;;;;;;5044400;28;20044;-59
2022/08/15 07:41:30;;;;;;;15.95;13.57;;;27.80;97.50;;;;;;5050095;28;20081;-61
2022/08/15 07:43:59;;;;;;;13.70;12.30;;;27.90;97.20;;;;;;5032459;28;20042;-60
2022/08/15 07:46:38;;;;;;;13.95;12.52;;;27.80;97.00;;;;;;5033386;28;20418;-58
2022/08/15 07:49:31;;;;;;;16.90;15.10;;;27.60;97.10;;;;;;5044764;28;20439;-59
2022/08/15 07:52:05;;;;;;;14.90;13.40;;;27.40;97.60;;;;;;5050969;28;20536;-59
2022/08/15 07:54:37;;;;;;;15.52;13.93;;;27.30;97.90;;;;;;5038036;28;20033;-60
2022/08/15 07:57:06;;;;;;;16.57;14.97;;;27.40;97.90;;;;;;5046358;28;20166;-59
2022/08/15 07:59:35;;;;;;;14.55;13.07;;;27.30;97.90;;;;;;5033586;28;20037;-59
2022/08/15 08:02:06;;;;;;;15.27;13.73;;;27.40;98.00;;;;;;5021737;28;20045;-59
2022/08/15 08:04:33;;;;;;;15.73;13.93;;;27.40;98.10;;;;;;5034576;28;20442;-59
2022/08/15 08:07:19;;;;;;;14.93;13.32;;;27.40;98.20;;;;;;5032283;28;20033;-59
2022/08/15 08:09:55;;;;;;;13.77;12.38;;;27.50;98.10;;;;;;5032606;28;20112;-59
2022/08/15 08:12:34;;;;;;;14.98;12.98;;;27.60;97.90;;;;;;5020606;28;20182;-59
2022/08/15 08:15:10;;;;;;;13.65;12.30;;;27.80;97.90;;;;;;5038313;28;20139;-59
2022/08/15 08:18:05;;;;;;;14.20;11.70;;;27.90;97.80;;;;;;5044302;28;20568;-59
2022/08/15 08:20:38;;;;;;;13.52;11.95;;;28.10;97.60;;;;;;5036549;28;20488;-60
2022/08/15 08:23:16;;;;;;;12.65;11.35;;;28.10;97.30;;;;;;5052687;28;20048;-58
2022/08/15 08:25:53;;;;;;;13.45;11.20;;;28.10;97.40;;;;;;5019464;28;20120;-60
2022/08/15 08:28:22;;;;;;;13.07;11.82;;;28.20;97.40;;;;;;5044201;28;20044;-59
2022/08/15 08:31:16;;;;;;;13.32;11.95;;;28.00;97.30;;;;;;5033587;28;20033;-60
2022/08/15 08:34:05;;;;;;;12.75;11.55;;;28.00;97.60;;;;;;5041464;28;20034;-59
2022/08/15 08:36:55;;;;;;;13.57;11.75;;;28.00;97.70;;;;;;5032588;28;20037;-59
2022/08/15 08:39:29;;;;;;;14.02;12.45;;;28.00;97.80;;;;;;5033908;28;20042;-60
2022/08/15 08:42:06;;;;;;;12.55;11.35;;;28.00;97.90;;;;;;5052339;28;20067;-59
2022/08/15 08:45:04;;;;;;;14.02;12.55;;;28.00;98.10;;;;;;5045543;28;20655;-60
2022/08/15 08:48:08;;;;;;;14.10;12.60;;;28.00;98.30;;;;;;5032471;28;20491;-59
2022/08/15 08:50:48;;;;;;;13.25;11.95;;;28.10;98.40;;;;;;5031694;28;20046;-60
2022/08/15 08:53:43;;;;;;;14.50;13.05;;;28.00;98.60;;;;;;5032346;28;20353;-59
2022/08/15 08:56:14;;;;;;;14.35;12.48;;;28.00;98.70;;;;;;5027743;28;20048;-59
2022/08/15 08:58:49;;;;;;;14.38;12.93;;;28.00;99.00;;;;;;5052292;28;20047;-59
2022/08/15 09:01:19;;;;;;;14.57;12.98;;;27.90;99.10;;;;;;5025090;28;20124;-59
2022/08/15 09:03:51;;;;;;;17.08;13.55;;;27.90;99.30;;;;;;5018425;28;20045;-58
2022/08/15 09:06:24;;;;;;;17.15;13.90;;;27.90;99.40;;;;;;5044502;28;20110;-59
2022/08/15 09:09:00;;;;;;;15.95;13.90;;;27.90;99.60;;;;;;5051929;28;20041;-59
2022/08/15 09:11:38;;;;;;;15.00;13.35;;;27.90;99.70;;;;;;5052169;28;20041;-59
2022/08/15 09:14:20;;;;;;;13.25;11.95;;;27.90;99.70;;;;;;5049514;28;20033;-59
2022/08/15 09:16:47;;;;;;;13.30;11.98;;;28.00;99.90;;;;;;5028149;28;20368;-58
2022/08/15 09:19:39;;;;;;;12.98;11.45;;;27.90;99.90;;;;;;5039563;28;20075;-58
2022/08/15 09:22:05;;;;;;;11.25;10.02;;;27.90;99.90;;;;;;5051640;28;20080;-59
2022/08/15 09:24:31;;;;;;;11.23;10.13;;;27.90;99.90;;;;;;5041608;28;20073;-60
2022/08/15 09:27:11;;;;;;;13.05;9.90;;;28.00;99.90;;;;;;5043044;28;20513;-59
2022/08/15 09:29:43;;;;;;;11.23;9.48;;;28.00;99.90;;;;;;5033862;28;20112;-59
2022/08/15 09:32:18;;;;;;;10.38;8.80;;;27.90;99.90;;;;;;5051692;28;20033;-59
2022/08/15 09:34:46;;;;;;;9.77;8.38;;;27.80;99.90;;;;;;5043370;28;20099;-59
2022/08/15 09:37:37;;;;;;;12.52;8.75;;;27.70;99.90;;;;;;5031647;28;20041;-59
2022/08/15 09:40:36;;;;;;;8.70;7.72;;;27.60;99.90;;;;;;5031761;28;20037;-59
2022/08/15 09:43:27;;;;;;;10.85;7.50;;;27.60;99.90;;;;;;5049147;28;20033;-59
2022/08/15 09:46:23;;;;;;;8.20;7.40;;;27.30;99.90;;;;;;5016761;28;20335;-58
2022/08/15 09:49:17;;;;;;;9.63;6.68;;;27.20;99.90;;;;;;5031831;28;20060;-59
2022/08/15 09:52:05;;;;;;;8.40;6.68;;;27.20;99.60;;;;;;5017436;28;20358;-59
2022/08/15 09:54:41;;;;;;;9.15;7.05;;;27.00;99.70;;;;;;5030535;28;20041;-59
2022/08/15 09:57:27;;;;;;;9.90;6.45;;;26.90;99.60;;;;;;5043686;28;20051;-59
2022/08/15 10:00:01;;;;;;;7.35;6.65;;;26.90;99.40;;;;;;5031462;28;20301;-59
2022/08/15 10:02:32;;;;;;;7.50;6.55;;;27.00;99.20;;;;;;5031127;28;20041;-59
2022/08/15 10:04:59;;;;;;;8.48;7.00;;;27.10;99.20;;;;;;5029756;28;20119;-59
2022/08/15 10:07:53;;;;;;;10.88;6.70;;;27.10;99.30;;;;;;5030831;28;20528;-59
2022/08/15 10:10:25;;;;;;;9.32;6.85;;;27.20;99.30;;;;;;5042815;28;20051;-58
2022/08/15 10:13:11;;;;;;;9.07;6.80;;;27.30;99.30;;;;;;5014064;28;20531;-59
2022/08/15 10:15:46;;;;;;;8.25;7.00;;;27.20;99.30;;;;;;5036026;28;20489;-59
2022/08/15 10:18:27;;;;;;;9.63;7.95;;;27.30;99.40;;;;;;5037969;28;20116;-59
2022/08/15 10:20:55;;;;;;;8.65;7.75;;;27.30;99.40;;;;;;5031191;28;20328;-59
2022/08/15 10:23:46;;;;;;;11.38;8.38;;;27.30;99.50;;;;;;5030915;28;20490;-58
2022/08/15 10:26:24;;;;;;;10.75;7.95;;;27.50;99.50;;;;;;5030266;28;20124;-59
2022/08/15 10:29:05;;;;;;;9.82;8.82;;;27.60;99.50;;;;;;5030632;28;20479;-59
2022/08/15 10:31:54;;;;;;;9.40;8.23;;;27.50;99.30;;;;;;5018322;28;20132;-59
2022/08/15 10:34:37;;;;;;;8.80;7.68;;;27.60;99.40;;;;;;5033901;28;20367;-59
2022/08/15 10:37:21;;;;;;;8.48;7.63;;;27.70;99.60;;;;;;5035055;28;20025;-60
2022/08/15 10:40:06;;;;;;;9.55;8.07;;;27.60;99.70;;;;;;5048852;28;20038;-59
2022/08/15 10:42:42;;;;;;;9.27;7.22;;;27.50;99.70;;;;;;5035182;28;20055;-59
2022/08/15 10:45:16;;;;;;;12.35;9.38;;;27.60;99.90;;;;;;5040347;28;20041;-59
2022/08/15 10:48:05;;;;;;;10.45;8.23;;;27.50;99.50;;;;;;5054516;28;20052;-58
2022/08/15 10:50:51;;;;;;;10.75;9.10;;;27.50;99.60;;;;;;5054968;28;20048;-59
2022/08/15 10:53:36;;;;;;;8.20;6.97;;;27.50;99.50;;;;;;5009075;28;20051;-59
2022/08/15 10:56:14;;;;;;;11.30;7.78;;;27.70;99.60;;;;;;5037157;28;20037;-60
2022/08/15 10:58:40;;;;;;;10.98;7.30;;;27.70;98.50;;;;;;5034782;28;20420;-59
2022/08/15 11:01:17;;;;;;;7.97;7.18;;;27.60;98.50;;;;;;5034384;28;20466;-60
2022/08/15 11:03:58;;;;;;;9.30;6.78;;;27.60;98.50;;;;;;5040194;28;20174;-59
2022/08/15 11:06:25;;;;;;;9.80;6.50;;;27.70;98.40;;;;;;5016157;28;20053;-58
2022/08/15 11:09:07;;;;;;;9.25;7.07;;;27.60;98.40;;;;;;5040400;28;20037;-59
2022/08/15 11:11:39;;;;;;;7.65;6.82;;;27.60;98.60;;;;;;5054058;28;20063;-59
2022/08/15 11:14:09;;;;;;;8.25;6.43;;;27.50;98.50;;;;;;5023169;28;20037;-59
2022/08/15 11:16:47;;;;;;;8.70;6.35;;;27.50;98.80;;;;;;5041533;28;20469;-59
2022/08/15 11:19:19;;;;;;;9.95;6.70;;;27.60;99.30;;;;;;5004368;28;20466;-59
2022/08/15 11:22:07;;;;;;;9.27;5.93;;;27.70;99.60;;;;;;5048084;28;20049;-59
2022/08/15 11:24:36;;;;;;;9.60;6.28;;;27.70;99.30;;;;;;5048616;28;20112;-59
2022/08/15 11:27:16;;;;;;;7.32;5.25;;;27.70;99.00;;;;;;5046164;28;20085;-60
2022/08/15 11:29:44;;;;;;;7.53;5.60;;;27.80;99.10;;;;;;5035976;28;20047;-59
2022/08/15 11:32:13;;;;;;;7.10;5.45;;;27.90;99.20;;;;;;5053948;28;20041;-60
2022/08/15 11:34:46;;;;;;;6.60;4.93;;;28.10;98.80;;;;;;5044191;28;20041;-59
2022/08/15 11:37:42;;;;;;;6.85;4.20;;;28.10;98.90;;;;;;5025643;28;20091;-59
2022/08/15 11:40:23;;;;;;;7.80;4.72;;;28.10;98.80;;;;;;5041562;28;20033;-59
2022/08/15 11:42:50;;;;;;;9.23;4.30;;;28.10;98.90;;;;;;5053528;28;20106;-60
2022/08/15 11:45:23;;;;;;;8.15;5.28;;;28.30;98.70;;;;;;5034294;28;20475;-59
2022/08/15 11:47:59;;;;;;;7.15;5.22;;;28.30;98.20;;;;;;5042479;28;20041;-59
2022/08/15 11:50:35;;;;;;;8.60;5.55;;;28.40;97.80;;;;;;5024585;28;20132;-59
2022/08/15 11:53:11;;;;;;;8.57;4.90;;;28.40;97.10;;;;;;5037651;28;20048;-59
2022/08/15 11:55:38;;;;;;;8.55;5.40;;;28.60;97.20;;;;;;5014553;28;20120;-60
2022/08/15 11:58:13;;;;;;;6.65;4.53;;;28.50;96.90;;;;;;5048842;28;20080;-59
2022/08/15 12:00:57;;;;;;;7.13;4.70;;;28.70;96.70;;;;;;5044823;28;20045;-60
2022/08/15 12:03:33;;;;;;;8.63;4.70;;;28.70;96.40;;;;;;5026192;28;20049;-59
2022/08/15 12:06:14;;;;;;;9.85;4.85;;;28.80;95.50;;;;;;5021162;28;20049;-59
2022/08/15 12:08:42;;;;;;;10.52;5.22;;;28.90;95.60;;;;;;5052706;28;20351;-59
2022/08/15 12:11:18;;;;;;;8.15;5.88;;;29.00;95.70;;;;;;5053229;28;20421;-59
2022/08/15 12:14:00;;;;;;;7.97;6.20;;;29.00;95.40;;;;;;5034205;28;20068;-61
2022/08/15 12:16:54;;;;;;;7.40;5.20;;;28.90;95.80;;;;;;5032024;28;20125;-59
2022/08/15 12:19:29;;;;;;;7.10;5.10;;;28.90;96.00;;;;;;5038072;28;20069;-60
2022/08/15 12:21:58;;;;;;;10.13;6.45;;;29.10;95.90;;;;;;5050749;28;20065;-59
2022/08/15 12:24:29;;;;;;;8.68;5.43;;;29.10;95.50;;;;;;5037472;28;20110;-59
2022/08/15 12:27:02;;;;;;;8.52;4.85;;;29.00;95.30;;;;;;5044033;28;20352;-59
2022/08/15 12:29:32;;;;;;;7.20;4.65;;;28.90;95.10;;;;;;5021774;28;20033;-59
2022/08/15 12:32:01;;;;;;;7.03;5.07;;;29.00;95.20;;;;;;5052798;28;20112;-59
2022/08/15 12:34:34;;;;;;;6.57;4.85;;;29.00;95.30;;;;;;5034479;28;20122;-59
2022/08/15 12:37:02;;;;;;;5.70;4.70;;;29.10;95.00;;;;;;5042750;28;20033;-59
2022/08/15 12:39:28;;;;;;;6.68;5.05;;;29.10;95.20;;;;;;5052328;28;20431;-59
2022/08/15 12:41:54;;;;;;;8.95;4.65;;;29.10;95.20;;;;;;5052704;28;20090;-60
2022/08/15 12:44:26;;;;;;;5.75;5.18;;;29.10;95.10;;;;;;5049288;28;20174;-59
2022/08/15 12:46:52;;;;;;;6.97;4.72;;;29.10;95.30;;;;;;5032659;28;20052;-59
2022/08/15 12:49:18;;;;;;;7.97;5.10;;;29.10;95.50;;;;;;5027926;28;20075;-59
2022/08/15 12:51:45;;;;;;;6.13;4.80;;;29.10;95.50;;;;;;5046823;28;20030;-59
2022/08/15 12:54:11;;;;;;;6.93;4.97;;;29.10;95.50;;;;;;5014330;28;20049;-59
2022/08/15 12:56:38;;;;;;;5.75;3.75;;;29.30;95.60;;;;;;5034753;28;20502;-60
2022/08/15 12:59:05;;;;;;;5.22;3.72;;;29.30;95.30;;;;;;5034421;28;20450;-59
2022/08/15 13:01:36;;;;;;;6.10;3.47;;;29.30;94.80;;;;;;5032612;28;20049;-60
2022/08/15 13:04:06;;;;;;;5.20;3.50;;;29.20;93.70;;;;;;5040462;28;20052;-59
2022/08/15 13:06:36;;;;;;;7.88;3.63;;;29.20;93.30;;;;;;5032600;28;20048;-60
2022/08/15 13:09:07;;;;;;;4.63;3.50;;;29.20;93.10;;;;;;5044203;28;20215;-59
2022/08/15 13:11:34;;;;;;;6.75;3.30;;;29.30;93.20;;;;;;5046301;28;20037;-59